Time;durP1;ratioP1;P1;durP2;ratioP2;P2;SDS_P1;SDS_P2;PMS_P1;PMS_P2;Temp;Humidity;BMP_temperature;BMP_pressure;BME280_temperature;BME280_humidity;BME280_pressure;Samples;Min_cycle;Max_cycle;Signal;HPM_P1;HPM_P2
2022/01/17 00:01:46;;;;;;;18.50;2.72;;;;;;;-146.64;100.00;42701.81;5052946;28;20120;-74
2022/01/17 00:04:12;;;;;;;15.45;3.97;;;;;;;-146.64;100.00;42769.41;5052386;28;20032;-75
2022/01/17 00:06:38;;;;;;;16.58;2.60;;;;;;;-146.64;100.00;42269.63;5052610;28;20495;-76
2022/01/17 00:09:03;;;;;;;17.00;2.67;;;;;;;-146.64;100.00;42206.13;5070018;28;20028;-75
2022/01/17 00:11:28;;;;;;;19.23;3.20;;;;;;;-146.64;100.00;41651.13;5052014;28;20484;-75
2022/01/17 00:13:55;;;;;;;16.63;2.60;;;;;;;-146.64;100.00;41950.13;5068140;28;20384;-75
2022/01/17 00:16:28;;;;;;;11.82;2.33;;;;;;;-146.64;100.00;41378.78;5052223;28;20047;-75
2022/01/17 00:19:17;;;;;;;12.82;2.17;;;;;;;-146.64;100.00;41184.25;5047698;28;20048;-75
2022/01/17 00:21:41;;;;;;;12.20;1.95;;;;;;;-146.64;100.00;41040.94;5055286;28;20040;-75
2022/01/17 00:24:08;;;;;;;11.52;2.05;;;;;;;-146.64;100.00;40754.28;5052979;28;20483;-75
2022/01/17 00:26:33;;;;;;;9.65;2.20;;;;;;;-146.64;100.00;40678.53;5052739;28;20179;-75
2022/01/17 00:28:59;;;;;;;10.32;2.47;;;;;;;-146.64;100.00;40725.63;5035668;28;20502;-75
2022/01/17 00:31:24;;;;;;;12.18;1.77;;;;;;;-146.64;100.00;40711.31;5069004;28;20035;-75
2022/01/17 00:33:49;;;;;;;14.60;2.03;;;;;;;-146.64;100.00;40664.22;5070226;28;20118;-75
2022/01/17 00:36:15;;;;;;;12.30;2.20;;;;;;;-146.64;100.00;40500.44;5052850;28;20024;-74
2022/01/17 00:38:40;;;;;;;17.38;2.13;;;;;;;-146.64;100.00;40600.75;5070055;28;20107;-75
2022/01/17 00:41:05;;;;;;;12.10;1.88;;;;;;;-146.64;100.00;40678.53;5070095;28;20439;-74
2022/01/17 00:43:31;;;;;;;12.70;2.47;;;;;;;-146.64;100.00;40592.56;5032925;28;20040;-75
2022/01/17 00:45:57;;;;;;;17.40;2.30;;;;;;;-146.64;100.00;40660.13;5046224;28;20021;-74
2022/01/17 00:48:22;;;;;;;16.70;3.08;;;;;;;-146.64;100.00;40795.25;5068575;28;20025;-75
2022/01/17 00:50:48;;;;;;;15.18;3.47;;;;;;;-146.64;100.00;40711.31;5049585;28;20024;-75
2022/01/17 00:53:13;;;;;;;18.50;2.00;;;;;;;-146.64;100.00;40537.28;5052243;28;20684;-75
2022/01/17 00:55:39;;;;;;;12.52;3.05;;;;;;;-146.64;100.00;40610.97;5051274;28;20032;-75
2022/01/17 00:58:04;;;;;;;18.77;2.50;;;;;;;-146.64;100.00;40643.75;5052570;28;20028;-74
2022/01/17 01:00:29;;;;;;;24.63;2.80;;;;;;;-146.64;100.00;40584.38;5051369;28;20020;-74
2022/01/17 01:02:55;;;;;;;12.25;2.10;;;;;;;-146.64;100.00;40668.31;5069468;28;20090;-74
2022/01/17 01:05:21;;;;;;;10.93;1.77;;;;;;;-146.64;100.00;40694.94;5023570;28;20234;-75
2022/01/17 01:07:46;;;;;;;18.67;2.83;;;;;;;-146.64;100.00;40713.34;5029562;28;20456;-75
2022/01/17 01:10:12;;;;;;;16.67;2.60;;;;;;;-146.64;100.00;40721.53;5068731;28;20055;-75
2022/01/17 01:12:44;;;;;;;20.00;2.20;;;;;;;-146.64;100.00;40760.44;5068118;28;20447;-75
2022/01/17 01:15:14;;;;;;;14.00;3.28;;;;;;;-146.64;100.00;40795.25;5051492;28;20047;-75
2022/01/17 01:17:54;;;;;;;9.93;1.75;;;;;;;-146.64;100.00;40844.38;5034262;28;20052;-74
2022/01/17 01:28:20;;;;;;;20.13;2.95;;;;;;;-146.64;100.00;40950.84;5054132;28;20368;-75
2022/01/17 01:30:50;;;;;;;17.50;1.90;;;;;;;-146.64;100.00;40901.72;5068399;28;20029;-75
2022/01/17 01:33:37;;;;;;;19.23;3.38;;;;;;;-146.64;100.00;40922.19;5061367;28;20107;-75
2022/01/17 01:36:16;;;;;;;15.45;2.42;;;;;;;-146.64;100.00;41024.56;5038282;28;20412;-75
2022/01/17 01:38:42;;;;;;;12.60;2.60;;;;;;;-146.64;100.00;41065.50;5034788;28;20016;-75
2022/01/17 01:41:08;;;;;;;10.70;1.95;;;;;;;-146.64;100.00;41237.50;5048444;28;20029;-75
2022/01/17 01:43:33;;;;;;;14.65;3.13;;;;;;;-146.64;100.00;41454.56;5032047;28;20503;-75
2022/01/17 01:46:01;;;;;;;12.32;2.70;;;;;;;-146.64;100.00;41548.75;5069279;28;20024;-75
2022/01/17 01:48:30;;;;;;;17.33;2.35;;;;;;;-146.64;100.00;41436.13;5034185;28;20391;-75
2022/01/17 01:50:56;;;;;;;17.92;2.17;;;;;;;-146.64;100.00;41667.53;5046119;28;20089;-75
2022/01/17 01:53:25;;;;;;;19.98;2.00;;;;;;;-146.64;100.00;41610.19;5049239;28;20040;-75
2022/01/17 01:55:51;;;;;;;13.38;2.88;;;;;;;-146.64;100.00;41606.09;5035174;28;20051;-74
2022/01/17 01:58:20;;;;;;;9.68;1.85;;;;;;;-146.64;100.00;41835.44;5050895;28;20530;-75
2022/01/17 02:00:46;;;;;;;14.73;2.25;;;;;;;-146.64;100.00;41581.50;5034536;28;20052;-73
2022/01/17 02:03:11;;;;;;;16.45;2.20;;;;;;;-146.64;100.00;41739.19;5050435;28;20567;-73
2022/01/17 02:05:36;;;;;;;10.05;2.95;;;;;;;-146.64;100.00;41974.72;5047822;28;20059;-73
2022/01/17 02:08:02;;;;;;;16.98;2.40;;;;;;;-146.64;100.00;41982.91;5049220;28;20067;-73
2022/01/17 02:10:27;;;;;;;11.20;2.25;;;;;;;-146.64;100.00;41999.28;5050395;28;20028;-73
2022/01/17 02:12:53;;;;;;;20.20;3.38;;;;;;;-146.64;100.00;42019.75;5036522;28;20465;-73
2022/01/17 02:15:18;;;;;;;10.98;2.13;;;;;;;-146.64;100.00;42306.50;5047359;28;20451;-73
2022/01/17 02:18:02;;;;;;;10.02;3.22;;;;;;;-146.64;100.00;42568.66;5047674;28;20095;-73
2022/01/17 02:20:43;;;;;;;18.20;1.85;;;;;;;-146.64;100.00;42699.75;5033717;28;20059;-73
2022/01/17 02:23:10;;;;;;;14.10;2.65;;;;;;;-146.64;100.00;42648.56;5051121;28;20028;-73
2022/01/17 02:25:35;;;;;;;12.57;2.30;;;;;;;-146.64;100.00;43256.94;5050401;28;20036;-73
2022/01/17 02:28:01;;;;;;;13.18;2.33;;;;;;;-146.64;100.00;44469.94;5032667;28;20362;-73
2022/01/17 02:30:27;;;;;;;14.30;2.33;;;;;;;-146.64;100.00;43666.69;5062398;28;20027;-73
2022/01/17 02:32:53;;;;;;;10.38;1.80;;;;;;;-146.64;100.00;44826.53;5049164;28;20472;-73
2022/01/17 02:35:21;;;;;;;13.32;2.22;;;;;;;-146.64;100.00;46612.00;5046923;28;20112;-73
2022/01/17 02:37:46;;;;;;;18.00;2.15;;;;;;;-146.64;100.00;47073.38;5031538;28;20102;-73
2022/01/17 02:40:14;;;;;;;9.63;2.22;;;;;;;-146.64;100.00;47048.78;5043953;28;20025;-73
2022/01/17 02:42:40;;;;;;;17.45;3.58;;;;;;;-146.64;100.00;48037.28;5038944;28;20023;-73
2022/01/17 02:45:19;;;;;;;11.30;2.10;;;;;;;-146.64;100.00;48039.34;5048207;28;20309;-73
2022/01/17 02:47:45;;;;;;;9.30;2.47;;;;;;;-146.64;100.00;49108.13;5034954;28;20024;-73
2022/01/17 02:50:10;;;;;;;8.27;1.65;;;;;;;-146.64;100.00;53201.31;5072461;28;20056;-73
2022/01/17 02:52:36;;;;;;;15.23;2.05;;;;;;;-146.64;100.00;57409.78;5043526;28;20029;-73
2022/01/17 02:55:01;;;;;;;18.23;2.17;;;;;;;-146.64;100.00;57936.13;5054288;28;20037;-73
2022/01/17 02:57:28;;;;;;;16.08;1.98;;;;;;;-146.64;100.00;62940.13;5031832;28;20048;-73
2022/01/17 02:59:53;;;;;;;10.18;2.05;;;;;;;-146.64;100.00;63467.22;5049590;28;20380;-73
2022/01/17 03:02:18;;;;;;;12.90;2.10;;;;;;;-146.64;100.00;67950.44;5070424;28;20476;-73
2022/01/17 03:04:44;;;;;;;9.52;2.10;;;;;;;-146.64;100.00;70854.00;5053949;28;20028;-73
2022/01/17 03:07:09;;;;;;;16.13;2.28;;;;;;;-146.64;100.00;71646.25;5037858;28;20472;-73
2022/01/17 03:09:44;;;;;;;18.58;2.33;;;;;;;-146.64;100.00;72438.66;5055663;28;20043;-73
2022/01/17 03:12:09;;;;;;;11.88;2.00;;;;;;;-146.64;100.00;75081.16;5072579;28;20039;-73
2022/01/17 03:14:35;;;;;;;10.75;2.35;;;;;;;-146.64;100.00;79312.78;5069187;28;20020;-73
2022/01/17 03:17:00;;;;;;;8.38;1.67;;;;;;;-146.64;100.00;80900.81;5052580;28;20036;-74
2022/01/17 03:19:25;;;;;;;7.45;2.13;;;;;;;-146.64;100.00;81959.81;5030464;28;20035;-73
2022/01/17 03:21:51;;;;;;;21.35;3.45;;;;;;;-146.64;100.00;83813.78;5054128;28;20403;-73
2022/01/17 03:24:16;;;;;;;14.57;2.42;;;;;;;-146.64;100.00;85668.59;5052926;28;20029;-73
2022/01/17 03:26:41;;;;;;;19.60;2.90;;;;;;;-146.64;100.00;85668.59;5022005;28;20037;-73
2022/01/17 03:29:07;;;;;;;26.58;3.63;;;;;;;-146.64;100.00;85403.56;5034011;28;20029;-73
2022/01/17 03:31:32;;;;;;;16.90;2.97;;;;;;;-146.64;100.00;86994.00;5040325;28;20025;-73
2022/01/17 03:33:59;;;;;;;23.00;2.72;;;;;;;-146.64;100.00;88054.63;5035242;28;20024;-73
2022/01/17 03:36:24;;;;;;;;;;;;;;;-146.64;100.00;89380.81;5054534;28;20036;-75
2022/01/17 03:38:50;;;;;;;12.80;2.97;;;;;;;-146.64;100.00;89380.81;5074644;28;19909;-73
2022/01/17 03:41:15;;;;;;;25.08;3.63;;;;;;;-146.64;100.00;90176.72;5039563;28;20025;-73
2022/01/17 03:43:41;;;;;;;20.10;3.30;;;;;;;-146.64;100.00;90707.41;5039921;28;20032;-73
2022/01/17 03:46:06;;;;;;;29.08;2.85;;;;;;;-146.64;100.00;91769.03;5055388;28;20020;-73
2022/01/17 03:48:33;;;;;;;33.83;4.00;;;;;;;-146.64;100.00;91238.19;5056189;28;20484;-74
2022/01/17 03:50:59;;;;;;;31.02;4.07;;;;;;;-146.64;100.00;92299.94;5055179;28;20036;-73
2022/01/17 03:53:24;;;;;;;30.70;4.95;;;;;;;-146.64;100.00;92565.41;5034745;28;20504;-73
2022/01/17 03:55:51;;;;;;;15.95;3.35;;;;;;;-146.64;100.00;92299.94;5027083;28;20040;-73
2022/01/17 03:58:16;;;;;;;18.73;3.42;;;;;;;-146.64;100.00;92830.91;5052849;28;20036;-73
2022/01/17 04:00:45;;;;;;;19.25;4.13;;;;;;;-146.64;100.00;93893.06;5051078;28;20040;-73
2022/01/17 04:03:10;;;;;;;29.23;4.68;;;;;;;-146.64;100.00;94424.25;5056107;28;20071;-73
2022/01/17 04:05:36;;;;;;;21.40;5.13;;;;;;;-146.64;100.00;94689.88;5054118;28;20029;-73
2022/01/17 04:08:03;;;;;;;17.75;4.22;;;;;;;-146.64;100.00;95221.19;5056644;28;20062;-73
2022/01/17 04:10:28;;;;;;;24.45;5.25;;;;;;;-146.64;100.00;95486.84;5036448;28;20456;-73
2022/01/17 04:13:00;;;;;;;18.63;5.15;;;;;;;-146.64;100.00;95486.84;5057857;28;20381;-73
2022/01/17 04:15:25;;;;;;;28.50;5.13;;;;;;;-146.64;100.00;96283.97;5056706;28;20095;-73
2022/01/17 04:17:50;;;;;;;35.25;6.80;;;;;;;-146.64;100.00;96549.72;5058902;28;20539;-73
2022/01/17 04:20:25;;;;;;;20.00;5.97;;;;;;;-146.64;100.00;96283.97;5063554;28;20032;-73
2022/01/17 04:22:53;;;;;;;24.92;5.82;;;;;;;-146.64;100.00;96815.47;5038766;28;20111;-73
2022/01/17 04:25:18;;;;;;;34.85;6.47;;;;;;;-146.64;100.00;97347.03;5047004;28;20081;-73
2022/01/17 04:27:44;;;;;;;24.35;6.47;;;;;;;-146.64;100.00;97612.84;5052299;28;20071;-73
2022/01/17 04:30:09;;;;;;;26.65;7.13;;;;;;;-146.64;100.00;97347.03;5052302;28;20029;-72
2022/01/17 04:32:36;;;;;;;29.38;8.32;;;;;;;-146.64;100.00;97612.84;5043458;28;20399;-72
2022/01/17 04:35:05;;;;;;;29.63;7.80;;;;;;;-146.64;100.00;97612.84;5062436;28;20383;-73
2022/01/17 04:37:31;;;;;;;23.52;7.53;;;;;;;-146.64;100.00;97612.84;5038948;28;20165;-73
2022/01/17 04:39:56;;;;;;;29.02;8.07;;;;;;;-146.64;100.00;97347.03;5044322;28;20081;-75
2022/01/17 04:42:27;;;;;;;29.65;7.53;;;;;;;-146.64;100.00;97878.69;5052398;28;20032;-73
2022/01/17 04:45:08;;;;;;;33.83;8.85;;;;;;;-146.64;100.00;97878.69;5040657;28;20020;-73
2022/01/17 04:47:36;;;;;;;24.08;7.75;;;;;;;-146.64;100.00;97878.69;5035515;28;20052;-74
2022/01/17 04:50:08;;;;;;;37.70;9.45;;;;;;;-146.64;100.00;98410.41;5040991;28;20041;-73
2022/01/17 04:52:35;;;;;;;34.00;8.80;;;;;;;-146.64;100.00;98942.19;5050491;28;20127;-73
2022/01/17 04:55:02;;;;;;;26.70;9.48;;;;;;;-146.64;100.00;98676.28;5056668;28;20126;-73
2022/01/17 04:57:27;;;;;;;;;;;;;;;-146.64;100.00;98676.28;5039390;28;20028;-74
2022/01/17 04:59:53;;;;;;;32.78;10.85;;;;;;;-146.64;100.00;98942.19;5042382;28;20284;-73
2022/01/17 05:02:21;;;;;;;25.85;10.20;;;;;;;-146.64;100.00;99208.09;5072967;28;20024;-73
2022/01/17 05:04:48;;;;;;;32.17;9.95;;;;;;;-146.64;100.00;99208.09;5055144;28;20028;-72
2022/01/17 05:07:17;;;;;;;29.35;9.45;;;;;;;-146.64;100.00;99474.03;5065506;28;20523;-73
2022/01/17 05:09:43;;;;;;;31.95;11.63;;;;;;;-146.64;100.00;99739.97;5038022;28;20041;-73
2022/01/17 05:12:10;;;;;;;37.88;11.85;;;;;;;-146.64;100.00;99739.97;5060378;28;20146;-73
2022/01/17 05:14:39;;;;;;;39.03;12.05;;;;;;;-146.64;100.00;99739.97;5051358;28;20055;-73
2022/01/17 05:17:22;;;;;;;38.50;12.13;;;;;;;-146.64;100.00;100005.94;5040083;28;20098;-73
2022/01/17 05:19:48;;;;;;;32.30;13.02;;;;;;;-146.64;100.00;100271.94;5041140;28;20029;-73
2022/01/17 05:22:18;;;;;;;47.42;13.40;;;;;;;-146.64;100.00;100537.94;5056082;28;20028;-73
2022/01/17 05:24:43;;;;;;;31.45;14.20;;;;;;;-146.64;100.00;100803.97;5028343;28;20111;-73
2022/01/17 05:27:09;;;;;;;44.50;15.57;;;;;;;-146.64;100.00;100537.94;5053749;28;20029;-72
2022/01/17 05:29:34;;;;;;;35.00;14.43;;;;;;;-146.64;100.00;100537.94;5052800;28;20039;-73
2022/01/17 05:32:00;;;;;;;39.55;15.68;;;;;;;-146.64;100.00;100803.97;5049830;28;20024;-73
2022/01/17 05:34:25;;;;;;;48.45;16.73;;;;;;;-146.64;100.00;100803.97;5054608;28;20035;-73
2022/01/17 05:36:51;;;;;;;52.75;19.35;;;;;;;-146.64;100.00;101070.00;5051391;28;20078;-73
2022/01/17 05:39:16;;;;;;;49.05;18.08;;;;;;;-146.64;100.00;100803.97;5045225;28;20028;-73
2022/01/17 05:41:42;;;;;;;49.25;19.83;;;;;;;-146.64;100.00;100803.97;5054629;28;20081;-73
2022/01/17 05:44:07;;;;;;;52.38;17.50;;;;;;;-146.64;100.00;100803.97;5036963;28;20494;-74
2022/01/17 05:46:33;;;;;;;42.63;18.38;;;;;;;-146.64;100.00;100803.97;5040354;28;20020;-73
2022/01/17 05:48:58;;;;;;;42.90;19.85;;;;;;;-146.64;100.00;100537.94;5036689;28;20070;-73
2022/01/17 05:51:23;;;;;;;46.55;19.23;;;;;;;-146.64;100.00;100803.97;5050119;28;20451;-73
2022/01/17 05:53:49;;;;;;;51.90;20.10;;;;;;;-146.64;100.00;100803.97;5053027;28;20131;-73
2022/01/17 05:56:14;;;;;;;42.55;20.15;;;;;;;-146.64;100.00;100803.97;5037796;28;20043;-73
2022/01/17 05:58:39;;;;;;;50.10;19.88;;;;;;;-146.64;100.00;101070.00;5034963;28;20025;-74
2022/01/17 06:01:06;;;;;;;37.83;19.85;;;;;;;-146.64;100.00;101070.00;5035993;28;20073;-73
2022/01/17 06:03:32;;;;;;;50.53;20.77;;;;;;;-146.64;100.00;101336.06;5062685;28;20516;-73
2022/01/17 06:05:58;;;;;;;50.60;21.15;;;;;;;-146.64;100.00;101070.00;5045158;28;20029;-73
2022/01/17 06:08:24;;;;;;;52.35;21.88;;;;;;;-146.64;100.00;101336.06;5063817;28;20039;-72
2022/01/17 06:10:49;;;;;;;51.00;21.52;;;;;;;-146.64;100.00;101070.00;5035201;28;20040;-73
2022/01/17 06:13:14;;;;;;;52.10;21.90;;;;;;;-146.64;100.00;101070.00;5053442;28;20123;-73
2022/01/17 06:15:39;;;;;;;50.22;21.88;;;;;;;-146.64;100.00;101070.00;5051174;28;20103;-73
2022/01/17 06:18:05;;;;;;;41.83;21.48;;;;;;;-146.64;100.00;101070.00;5048536;28;20035;-73
2022/01/17 06:20:30;;;;;;;51.88;22.88;;;;;;;-146.64;100.00;101336.06;5053566;28;20083;-73
2022/01/17 06:22:55;;;;;;;54.00;23.52;;;;;;;-146.64;100.00;101336.06;5046917;28;20503;-73
2022/01/17 06:25:21;;;;;;;45.53;24.30;;;;;;;-146.64;100.00;101070.00;5054352;28;20408;-73
2022/01/17 06:27:46;;;;;;;46.60;22.75;;;;;;;-146.64;100.00;101070.00;5065370;28;20064;-74
2022/01/17 06:30:13;;;;;;;66.55;23.33;;;;;;;-146.64;100.00;100803.97;5027587;28;20032;-73
2022/01/17 06:32:39;;;;;;;49.30;22.58;;;;;;;-146.64;100.00;100803.97;5051667;28;20016;-73
2022/01/17 06:35:04;;;;;;;51.45;23.65;;;;;;;-146.64;100.00;100803.97;5053805;28;20511;-73
2022/01/17 06:37:30;;;;;;;47.53;23.75;;;;;;;-146.64;100.00;101070.00;5051005;28;20566;-72
2022/01/17 06:39:55;;;;;;;60.72;26.05;;;;;;;-146.64;100.00;101070.00;5053166;28;20029;-73
2022/01/17 06:42:22;;;;;;;53.00;24.95;;;;;;;-146.64;100.00;101070.00;5054304;28;20032;-73
2022/01/17 06:44:48;;;;;;;58.95;26.60;;;;;;;-146.64;100.00;101070.00;5068712;28;20032;-73
2022/01/17 06:47:13;;;;;;;59.23;26.43;;;;;;;-146.64;100.00;100803.97;5051080;28;20047;-74
2022/01/17 06:49:39;;;;;;;51.40;27.00;;;;;;;-146.64;100.00;101070.00;5036224;28;20021;-73
2022/01/17 06:52:04;;;;;;;54.10;25.30;;;;;;;-146.64;100.00;101070.00;5048810;28;20045;-73
2022/01/17 06:54:30;;;;;;;60.70;25.90;;;;;;;-146.64;100.00;101070.00;5047096;28;20047;-74
2022/01/17 06:56:55;;;;;;;52.15;23.48;;;;;;;-146.64;100.00;100803.97;5036369;28;20033;-73
2022/01/17 06:59:21;;;;;;;53.35;23.23;;;;;;;-146.64;100.00;101070.00;5053544;28;20047;-73
2022/01/17 07:01:46;;;;;;;61.70;24.42;;;;;;;-146.64;100.00;101336.06;5070129;28;20050;-72
2022/01/17 07:04:11;;;;;;;52.78;22.50;;;;;;;-146.64;100.00;101070.00;5034847;28;20527;-73
2022/01/17 07:06:40;;;;;;;50.53;20.45;;;;;;;-146.64;100.00;101070.00;5053867;28;20055;-73
2022/01/17 07:09:08;;;;;;;50.08;20.80;;;;;;;-146.64;100.00;100803.97;5071222;28;20048;-73
2022/01/17 07:11:38;;;;;;;56.30;19.30;;;;;;;-146.64;100.00;100803.97;5043968;28;20024;-73
2022/01/17 07:14:10;;;;;;;48.00;19.70;;;;;;;-146.64;100.00;100803.97;5049781;28;20028;-72
2022/01/17 07:16:41;;;;;;;46.45;17.30;;;;;;;-146.64;100.00;100803.97;5053967;28;20396;-73
2022/01/17 07:19:07;;;;;;;56.15;18.33;;;;;;;-146.64;100.00;100537.94;5053545;28;20037;-73
2022/01/17 07:21:33;;;;;;;52.83;17.80;;;;;;;-146.64;100.00;100537.94;5033457;28;20451;-73
2022/01/17 07:24:00;;;;;;;54.83;17.93;;;;;;;-146.64;100.00;100537.94;5051468;28;20484;-74
2022/01/17 07:26:25;;;;;;;52.75;16.35;;;;;;;-146.64;100.00;100271.94;5039735;28;20115;-73
2022/01/17 07:28:51;;;;;;;41.78;15.20;;;;;;;-146.64;100.00;100271.94;5056919;28;20068;-73
2022/01/17 07:31:16;;;;;;;47.10;16.00;;;;;;;-146.64;100.00;100005.94;5058399;28;20028;-73
2022/01/17 07:33:42;;;;;;;46.85;15.50;;;;;;;-146.64;100.00;100005.94;5040742;28;20028;-73
2022/01/17 07:36:07;;;;;;;46.78;13.68;;;;;;;-146.64;100.00;100005.94;5057832;28;20020;-74
2022/01/17 07:38:36;;;;;;;44.85;13.82;;;;;;;-146.64;100.00;100005.94;5042401;28;20433;-73
2022/01/17 07:41:02;;;;;;;48.38;12.40;;;;;;;-146.64;100.00;100005.94;5073708;28;20388;-73
2022/01/17 07:43:28;;;;;;;46.53;13.37;;;;;;;-146.64;100.00;100005.94;5053724;28;20029;-73
2022/01/17 07:46:07;;;;;;;45.33;13.27;;;;;;;-146.64;100.00;99739.97;5055524;28;20025;-73
2022/01/17 07:51:20;;;;;;;54.22;11.48;;;;;;;-146.64;100.00;99739.97;5064177;28;20032;-73
2022/01/17 07:53:45;;;;;;;41.03;10.60;;;;;;;-146.64;100.00;99739.97;5053472;28;20052;-73
2022/01/17 07:56:11;;;;;;;32.88;9.35;;;;;;;-146.64;100.00;99739.97;5073139;28;20052;-73
2022/01/17 07:58:36;;;;;;;38.55;11.70;;;;;;;-146.64;100.00;99474.03;5060081;28;20044;-73
2022/01/17 08:01:02;;;;;;;46.13;10.82;;;;;;;-146.64;100.00;99474.03;5074489;28;20020;-73
2022/01/17 08:03:27;;;;;;;61.90;10.65;;;;;;;-146.64;100.00;99474.03;5055427;28;20028;-73
2022/01/17 08:05:52;;;;;;;52.03;11.02;;;;;;;-146.64;100.00;99474.03;5047671;28;20048;-73
2022/01/17 08:08:18;;;;;;;44.05;10.52;;;;;;;-146.64;100.00;99474.03;5051417;28;20086;-73
2022/01/17 08:10:43;;;;;;;42.72;10.32;;;;;;;-146.64;100.00;99739.97;5055673;28;20034;-73
2022/01/17 08:13:10;;;;;;;41.03;10.43;;;;;;;-146.64;100.00;99474.03;5056672;28;20017;-74
2022/01/17 08:15:37;;;;;;;48.83;10.80;;;;;;;-146.64;100.00;99474.03;5053206;28;20099;-74
2022/01/17 08:18:03;;;;;;;45.25;11.90;;;;;;;-146.64;100.00;99474.03;5054301;28;20111;-74
2022/01/17 08:20:30;;;;;;;43.35;11.15;;;;;;;-146.64;100.00;99208.09;5039573;28;20178;-74
2022/01/17 08:22:56;;;;;;;47.63;11.95;;;;;;;-146.64;100.00;99474.03;5055438;28;20029;-73
2022/01/17 08:25:22;;;;;;;44.95;11.50;;;;;;;-146.64;100.00;99208.09;5049120;28;20028;-74
2022/01/17 08:27:47;;;;;;;41.55;9.45;;;;;;;-146.64;100.00;98942.19;5029489;28;20036;-74
2022/01/17 08:30:12;;;;;;;36.67;9.80;;;;;;;-146.64;100.00;98942.19;5053846;28;20036;-74
2022/01/17 08:32:38;;;;;;;45.58;9.88;;;;;;;-146.64;100.00;98410.41;5034308;28;20063;-73
2022/01/17 08:35:03;;;;;;;35.60;8.30;;;;;;;-146.64;100.00;98144.53;5051288;28;20664;-75
2022/01/17 08:37:30;;;;;;;35.38;9.43;;;;;;;-146.64;100.00;97878.69;5053360;28;20110;-74
2022/01/17 08:39:56;;;;;;;;;;;;;;;-146.64;100.00;97612.84;5057412;28;20056;-73
2022/01/17 08:42:21;;;;;;;44.28;8.63;;;;;;;-146.64;100.00;97081.25;5057467;28;19916;-74
2022/01/17 08:44:50;;;;;;;40.28;9.60;;;;;;;-146.64;100.00;96549.72;5070333;28;20032;-73
2022/01/17 08:47:16;;;;;;;37.60;8.65;;;;;;;-146.64;100.00;96549.72;5041736;28;20033;-74
2022/01/17 08:49:42;;;;;;;46.90;9.50;;;;;;;-146.64;100.00;96018.25;5074700;28;20142;-73
2022/01/17 08:52:08;;;;;;;36.40;8.15;;;;;;;-146.64;100.00;95752.53;5048408;28;20048;-74
2022/01/17 08:54:33;;;;;;;39.78;8.73;;;;;;;-146.64;100.00;95486.84;5030954;28;20045;-74
2022/01/17 08:56:58;;;;;;;41.38;8.73;;;;;;;-146.64;100.00;94955.53;5044112;28;20091;-73
2022/01/17 08:59:23;;;;;;;45.20;9.90;;;;;;;-146.64;100.00;94955.53;5047918;28;20555;-74
2022/01/17 09:01:49;;;;;;;45.00;8.88;;;;;;;-146.64;100.00;94424.25;5041045;28;20033;-74
2022/01/17 09:04:14;;;;;;;39.10;8.10;;;;;;;-146.64;100.00;93893.06;5063330;28;20032;-73
2022/01/17 09:06:41;;;;;;;35.70;5.97;;;;;;;-146.64;100.00;93361.97;5064285;28;20025;-74
2022/01/17 09:09:07;;;;;;;49.53;9.30;;;;;;;-146.64;100.00;92299.94;5052186;28;20090;-74
2022/01/17 09:11:32;;;;;;;26.98;6.25;;;;;;;-146.64;100.00;92034.47;5051649;28;20028;-73
2022/01/17 09:13:58;;;;;;;47.50;8.43;;;;;;;-146.64;100.00;92034.47;5025635;28;20021;-74
2022/01/17 09:16:23;;;;;;;33.58;7.07;;;;;;;-146.64;100.00;91769.03;5053896;28;20028;-74
2022/01/17 09:18:48;;;;;;;28.35;7.07;;;;;;;-146.64;100.00;91503.59;5050457;28;20063;-73
2022/01/17 09:21:14;;;;;;;31.88;6.72;;;;;;;-146.64;100.00;90972.78;5031872;28;20041;-74
2022/01/17 09:23:40;;;;;;;35.38;7.03;;;;;;;-146.64;100.00;90176.72;5029363;28;20032;-74
2022/01/17 09:26:05;;;;;;;47.73;8.57;;;;;;;-146.64;100.00;88850.28;5043452;28;20423;-74
2022/01/17 09:28:31;;;;;;;34.50;6.15;;;;;;;-146.64;100.00;88319.81;5030630;28;20279;-74
2022/01/17 09:30:56;;;;;;;38.00;6.57;;;;;;;-146.64;100.00;88054.63;5061583;28;20028;-74
2022/01/17 09:33:21;;;;;;;39.75;7.18;;;;;;;-146.64;100.00;86198.72;5032862;28;20079;-74
2022/01/17 09:35:47;;;;;;;36.50;7.00;;;;;;;-146.64;100.00;85403.56;5061555;28;20039;-74
2022/01/17 09:38:12;;;;;;;39.17;6.57;;;;;;;-146.64;100.00;84078.72;5052466;28;20043;-74
2022/01/17 09:40:38;;;;;;;36.72;7.10;;;;;;;-146.64;100.00;83548.88;5031535;28;20043;-74
2022/01/17 09:43:03;;;;;;;31.73;6.53;;;;;;;-146.64;100.00;81695.03;5048517;28;20029;-74
2022/01/17 09:45:30;;;;;;;36.25;7.40;;;;;;;-146.64;100.00;80106.72;5048649;28;20107;-74
2022/01/17 09:47:55;;;;;;;39.65;8.13;;;;;;;-146.64;100.00;80106.72;5050185;28;20039;-73
2022/01/17 09:50:32;;;;;;;38.95;7.13;;;;;;;-146.64;100.00;77989.94;5051612;28;20426;-74
2022/01/17 09:52:58;;;;;;;34.63;7.40;;;;;;;-146.64;100.00;75874.25;5048033;28;20378;-74
2022/01/17 09:55:27;;;;;;;37.08;7.18;;;;;;;-146.64;100.00;74816.84;5022224;28;20046;-74
2022/01/17 09:57:56;;;;;;;43.10;7.22;;;;;;;-146.64;100.00;74288.22;5028109;28;20063;-74
2022/01/17 10:00:26;;;;;;;44.00;7.78;;;;;;;-146.64;100.00;73495.47;5068546;28;20037;-74
2022/01/17 10:02:53;;;;;;;35.08;6.53;;;;;;;-146.64;100.00;71118.06;5035316;28;20078;-74
2022/01/17 10:05:18;;;;;;;36.63;6.57;;;;;;;-146.64;100.00;69797.91;5059552;28;20032;-74
2022/01/17 10:08:04;;;;;;;46.75;8.65;;;;;;;-146.64;100.00;70061.91;5044794;28;20527;-74
2022/01/17 10:11:34;;;;;;;31.85;6.07;;;;;;;-146.64;100.00;71118.06;5063100;28;20491;-74
2022/01/17 10:13:38;;;;;;;31.50;5.80;;;;;;;-146.64;100.00;69006.03;5043576;28;20091;-73
2022/01/17 10:16:05;;;;;;;40.10;7.88;;;;;;;-146.64;100.00;67422.72;5032119;28;20060;-73
2022/01/17 10:18:35;;;;;;;46.63;7.53;;;;;;;-146.64;100.00;66103.78;5047797;28;20024;-73
2022/01/17 10:21:12;;;;;;;29.05;5.80;;;;;;;-146.64;100.00;65048.97;5041853;28;20566;-74
2022/01/17 10:36:55;;;;;;;34.80;6.68;;;;;;;-146.64;100.00;53008.28;5064051;28;20085;-73
2022/01/17 10:39:21;;;;;;;44.15;6.78;;;;;;;-146.64;100.00;50029.44;5034080;28;20016;-73
2022/01/17 10:41:46;;;;;;;42.25;8.65;;;;;;;-146.64;100.00;49124.56;5051440;28;20040;-74
2022/01/17 10:44:32;;;;;;;33.70;6.05;;;;;;;-146.64;100.00;52577.00;5051915;28;20028;-74
2022/01/17 10:47:22;;;;;;;40.88;6.63;;;;;;;-146.64;100.00;48554.22;5050741;28;20052;-73
2022/01/17 10:49:54;;;;;;;37.42;6.55;;;;;;;-146.64;100.00;46956.50;5054253;28;20041;-73
2022/01/17 10:52:35;;;;;;;35.58;7.07;;;;;;;-146.64;100.00;45193.41;5055967;28;20369;-73
2022/01/17 10:55:16;;;;;;;44.38;5.70;;;;;;;-146.64;100.00;44834.72;5025933;28;20040;-74
2022/01/17 10:57:43;;;;;;;36.47;6.47;;;;;;;-146.64;100.00;43574.50;5037402;28;20067;-74
2022/01/17 11:00:27;;;;;;;39.95;6.43;;;;;;;-146.64;100.00;42392.50;5045351;28;20032;-73
2022/01/17 11:02:55;;;;;;;41.25;6.22;;;;;;;-146.64;100.00;42601.44;5037450;28;20103;-74
2022/01/17 11:05:22;;;;;;;43.85;6.10;;;;;;;-146.64;100.00;42273.72;5035799;28;20070;-73
2022/01/17 11:07:49;;;;;;;44.53;6.13;;;;;;;-146.64;100.00;41987.00;5051937;28;20021;-74
2022/01/17 11:10:20;;;;;;;31.33;5.38;;;;;;;-146.64;100.00;41589.69;5047752;28;20027;-73
2022/01/17 11:12:46;;;;;;;34.85;4.80;;;;;;;-146.64;100.00;41630.66;5069346;28;20031;-74
2022/01/17 11:15:13;;;;;;;51.70;7.15;;;;;;;-146.64;100.00;41466.84;5060651;28;20365;-74
2022/01/17 11:17:46;;;;;;;37.95;6.05;;;;;;;-146.64;100.00;41458.66;5036697;28;20032;-73
2022/01/17 11:20:12;;;;;;;29.83;5.90;;;;;;;-146.64;100.00;41683.91;5072835;28;20051;-73
2022/01/17 11:22:42;;;;;;;30.08;6.40;;;;;;;-146.64;100.00;41405.41;5054728;28;20428;-73
2022/01/17 11:25:14;;;;;;;40.17;6.78;;;;;;;-146.64;100.00;41225.22;5047919;28;20082;-73